Time;durP1;ratioP1;P1;durP2;ratioP2;P2;SDS_P1;SDS_P2;PMS_P1;PMS_P2;Temp;Humidity;BMP_temperature;BMP_pressure;BME280_temperature;BME280_humidity;BME280_pressure;Samples;Min_cycle;Max_cycle;Signal;HPM_P1;HPM_P2
2022/08/26 00:01:47;;;;;;;5.18;3.20;;;;;;;;;;5015122;28;20500;-83
2022/08/26 00:04:14;;;;;;;5.63;3.53;;;;;;;;;;4998702;28;20099;-83
2022/08/26 00:06:39;;;;;;;4.45;3.33;;;;;;;;;;5014981;28;20032;-83
2022/08/26 00:09:05;;;;;;;4.30;3.03;;;;;;;;;;5014543;28;20041;-83
2022/08/26 00:11:30;;;;;;;4.60;3.00;;;;;;;;;;5014848;28;20049;-83
2022/08/26 00:13:57;;;;;;;4.82;3.08;;;;;;;;;;4999533;28;20053;-83
2022/08/26 00:16:23;;;;;;;6.28;2.70;;;;;;;;;;5018428;28;20037;-83
2022/08/26 00:18:49;;;;;;;6.18;2.75;;;;;;;;;;5018441;28;20043;-83
2022/08/26 00:21:15;;;;;;;4.10;2.60;;;;;;;;;;5001734;28;20026;-84
2022/08/26 00:23:43;;;;;;;6.13;2.78;;;;;;;;;;5001626;28;20044;-83
2022/08/26 00:26:09;;;;;;;6.28;2.95;;;;;;;;;;5018032;28;20048;-82
2022/08/26 00:28:36;;;;;;;3.63;2.60;;;;;;;;;;5001235;28;20033;-83
2022/08/26 00:31:01;;;;;;;3.30;2.42;;;;;;;;;;5001326;28;20045;-83
2022/08/26 00:33:26;;;;;;;5.20;2.88;;;;;;;;;;5017907;28;20041;-83
2022/08/26 00:35:52;;;;;;;3.88;2.72;;;;;;;;;;5017454;28;20025;-83
2022/08/26 00:38:17;;;;;;;4.20;2.33;;;;;;;;;;5017606;28;20055;-83
2022/08/26 00:40:49;;;;;;;5.13;2.85;;;;;;;;;;5014328;28;20400;-83
2022/08/26 00:43:15;;;;;;;3.17;2.25;;;;;;;;;;4982284;28;20033;-83
2022/08/26 00:45:43;;;;;;;6.68;3.28;;;;;;;;;;4997894;28;20132;-83
2022/08/26 00:48:09;;;;;;;3.25;2.38;;;;;;;;;;4981963;28;20033;-83
2022/08/26 00:50:37;;;;;;;3.65;2.65;;;;;;;;;;4997593;28;20522;-83
2022/08/26 00:53:20;;;;;;;4.22;2.30;;;;;;;;;;4997970;28;20124;-83
2022/08/26 00:55:53;;;;;;;4.25;2.17;;;;;;;;;;5001789;28;20964;-83
2022/08/26 00:58:20;;;;;;;5.00;2.38;;;;;;;;;;4997564;28;20029;-83
2022/08/26 01:00:45;;;;;;;5.00;2.70;;;;;;;;;;4997605;28;20029;-83
2022/08/26 01:03:12;;;;;;;5.00;2.50;;;;;;;;;;4998062;28;20408;-84
2022/08/26 01:05:39;;;;;;;5.20;3.00;;;;;;;;;;4997385;28;20035;-83
2022/08/26 01:08:06;;;;;;;4.40;2.40;;;;;;;;;;5013256;28;20041;-83
2022/08/26 01:10:31;;;;;;;4.88;2.53;;;;;;;;;;5000479;28;20033;-83
2022/08/26 01:12:59;;;;;;;5.47;2.58;;;;;;;;;;5017220;28;20419;-83
2022/08/26 01:15:31;;;;;;;2.67;1.98;;;;;;;;;;5030376;28;20045;-84
2022/08/26 01:17:57;;;;;;;3.75;2.60;;;;;;;;;;4998405;28;20028;-83
2022/08/26 01:20:30;;;;;;;6.20;2.45;;;;;;;;;;4997168;28;20080;-82
2022/08/26 01:22:59;;;;;;;2.95;2.33;;;;;;;;;;5013938;28;20037;-83
2022/08/26 01:25:26;;;;;;;3.58;2.20;;;;;;;;;;5030514;28;20033;-83
2022/08/26 01:27:52;;;;;;;4.78;2.05;;;;;;;;;;5014304;28;20053;-84
2022/08/26 01:30:17;;;;;;;3.28;2.40;;;;;;;;;;4997282;28;20033;-83
2022/08/26 01:32:43;;;;;;;3.15;2.00;;;;;;;;;;5014134;28;20403;-84
2022/08/26 01:35:08;;;;;;;6.50;2.80;;;;;;;;;;4997457;28;20069;-83
2022/08/26 01:37:35;;;;;;;3.67;2.45;;;;;;;;;;5013570;28;20065;-83
2022/08/26 01:40:00;;;;;;;3.42;1.95;;;;;;;;;;5014516;28;20088;-83
2022/08/26 01:42:26;;;;;;;4.93;2.90;;;;;;;;;;5004609;28;20064;-83
2022/08/26 01:45:03;;;;;;;3.38;2.25;;;;;;;;;;5004813;28;20037;-83
2022/08/26 01:47:30;;;;;;;4.00;1.90;;;;;;;;;;4991020;28;20039;-83
2022/08/26 01:49:56;;;;;;;3.78;2.10;;;;;;;;;;5001543;28;20035;-83
2022/08/26 01:52:24;;;;;;;4.82;2.25;;;;;;;;;;5017209;28;20044;-83
2022/08/26 01:54:50;;;;;;;3.42;2.00;;;;;;;;;;5001580;28;20037;-83
2022/08/26 01:57:16;;;;;;;4.28;2.30;;;;;;;;;;5017826;28;20068;-84
2022/08/26 01:59:42;;;;;;;4.25;2.58;;;;;;;;;;5000971;28;20480;-83
2022/08/26 02:02:09;;;;;;;2.88;1.85;;;;;;;;;;5017046;28;20049;-84
2022/08/26 02:04:46;;;;;;;3.15;2.03;;;;;;;;;;5033830;28;20044;-83
2022/08/26 02:07:12;;;;;;;4.20;2.28;;;;;;;;;;5001238;28;20029;-83
2022/08/26 02:09:38;;;;;;;4.97;2.35;;;;;;;;;;5016995;28;20504;-84
2022/08/26 02:12:04;;;;;;;4.93;2.60;;;;;;;;;;5016894;28;20088;-83
2022/08/26 02:14:40;;;;;;;4.00;1.80;;;;;;;;;;5007406;28;20036;-83
2022/08/26 02:17:06;;;;;;;4.28;2.08;;;;;;;;;;5005107;28;20033;-83
2022/08/26 02:19:34;;;;;;;3.90;2.20;;;;;;;;;;5004244;28;20052;-83
2022/08/26 02:22:02;;;;;;;4.00;2.17;;;;;;;;;;5020248;28;20029;-83
2022/08/26 02:24:37;;;;;;;5.53;2.20;;;;;;;;;;5020423;28;20040;-83
2022/08/26 02:27:03;;;;;;;3.70;2.08;;;;;;;;;;5004700;28;20033;-83
2022/08/26 02:29:36;;;;;;;3.45;2.17;;;;;;;;;;5003748;28;20479;-83
2022/08/26 02:32:02;;;;;;;3.33;1.80;;;;;;;;;;5004088;28;20082;-82
2022/08/26 02:34:33;;;;;;;3.60;2.08;;;;;;;;;;5020028;28;20045;-83
2022/08/26 02:36:59;;;;;;;5.47;2.08;;;;;;;;;;5004823;28;20040;-83
2022/08/26 02:39:25;;;;;;;2.70;1.60;;;;;;;;;;5003489;28;20037;-83
2022/08/26 02:41:52;;;;;;;3.53;2.00;;;;;;;;;;5000302;28;20048;-83
2022/08/26 02:44:18;;;;;;;3.88;1.80;;;;;;;;;;5033155;28;20045;-83
2022/08/26 02:46:44;;;;;;;2.60;1.67;;;;;;;;;;4991568;28;20033;-83
2022/08/26 02:49:09;;;;;;;4.70;1.92;;;;;;;;;;5020228;28;20029;-83
2022/08/26 02:51:35;;;;;;;3.20;1.67;;;;;;;;;;5003228;28;20522;-83
2022/08/26 02:54:00;;;;;;;3.03;1.85;;;;;;;;;;5019432;28;20056;-83
2022/08/26 02:56:27;;;;;;;4.60;1.95;;;;;;;;;;4984154;28;20033;-83
2022/08/26 02:58:52;;;;;;;3.47;1.80;;;;;;;;;;4999841;28;20415;-83
2022/08/26 03:01:27;;;;;;;4.25;1.60;;;;;;;;;;5015868;28;20038;-82
2022/08/26 03:03:53;;;;;;;3.55;1.50;;;;;;;;;;4984680;28;20037;-82
2022/08/26 03:06:18;;;;;;;4.85;2.10;;;;;;;;;;5016120;28;20091;-83
2022/08/26 03:08:44;;;;;;;4.07;1.70;;;;;;;;;;4999054;28;20045;-83
2022/08/26 03:11:10;;;;;;;4.05;1.60;;;;;;;;;;5004766;28;20033;-82
2022/08/26 03:13:36;;;;;;;3.58;1.55;;;;;;;;;;4999963;28;20103;-83
2022/08/26 03:16:01;;;;;;;5.43;1.88;;;;;;;;;;5002143;28;20041;-83
2022/08/26 03:18:28;;;;;;;2.80;1.70;;;;;;;;;;5002881;28;20033;-82
2022/08/26 03:20:53;;;;;;;3.00;1.60;;;;;;;;;;5019278;28;20110;-83
2022/08/26 03:23:20;;;;;;;3.78;1.60;;;;;;;;;;5018859;28;20037;-83
2022/08/26 03:25:52;;;;;;;2.65;1.20;;;;;;;;;;5019351;28;20044;-83
2022/08/26 03:28:17;;;;;;;;;;;;;;;;;;5036582;28;20041;-83
2022/08/26 03:30:43;;;;;;;3.45;1.70;;;;;;;;;;5018596;28;19921;-83
2022/08/26 03:33:10;;;;;;;3.45;1.90;;;;;;;;;;5019229;28;20124;-83
2022/08/26 03:35:36;;;;;;;4.38;1.80;;;;;;;;;;5002615;28;20071;-83
2022/08/26 03:38:02;;;;;;;4.80;2.00;;;;;;;;;;5002109;28;20041;-83
2022/08/26 03:40:28;;;;;;;3.90;1.48;;;;;;;;;;5018497;28;20043;-83
2022/08/26 03:42:53;;;;;;;4.13;1.67;;;;;;;;;;5002329;28;20037;-83
2022/08/26 03:45:19;;;;;;;2.42;1.33;;;;;;;;;;5012003;28;20052;-83
2022/08/26 03:47:45;;;;;;;3.35;1.70;;;;;;;;;;5010341;28;20039;-83
2022/08/26 03:50:12;;;;;;;2.88;1.42;;;;;;;;;;4997482;28;20151;-82
2022/08/26 03:52:38;;;;;;;3.45;1.52;;;;;;;;;;4998740;28;20037;-83
2022/08/26 03:55:05;;;;;;;2.75;1.05;;;;;;;;;;5015064;28;20127;-83
2022/08/26 03:57:31;;;;;;;3.13;1.67;;;;;;;;;;4982746;28;20030;-82
2022/08/26 03:59:56;;;;;;;2.88;1.58;;;;;;;;;;4998394;28;20033;-83
2022/08/26 04:02:22;;;;;;;4.40;1.48;;;;;;;;;;4998071;28;20040;-83
2022/08/26 04:04:47;;;;;;;4.80;1.33;;;;;;;;;;4998652;28;20095;-83
2022/08/26 04:07:13;;;;;;;2.60;1.30;;;;;;;;;;5014500;28;20033;-83
2022/08/26 04:09:38;;;;;;;2.88;1.20;;;;;;;;;;4998401;28;20041;-83
2022/08/26 04:12:04;;;;;;;2.30;1.23;;;;;;;;;;5010129;28;20068;-83
2022/08/26 04:14:31;;;;;;;3.13;1.50;;;;;;;;;;5014372;28;20083;-85
2022/08/26 04:16:56;;;;;;;5.57;1.60;;;;;;;;;;4998836;28;20039;-84
2022/08/26 04:19:23;;;;;;;3.50;1.65;;;;;;;;;;5015005;28;20029;-84
2022/08/26 04:21:51;;;;;;;5.07;1.65;;;;;;;;;;4998264;28;20084;-84
2022/08/26 04:24:20;;;;;;;5.03;1.38;;;;;;;;;;4998734;28;20033;-85
2022/08/26 04:26:46;;;;;;;2.47;1.00;;;;;;;;;;5014681;28;20037;-85
2022/08/26 04:29:24;;;;;;;1.80;0.98;;;;;;;;;;5014412;28;20041;-85
2022/08/26 04:31:49;;;;;;;3.78;1.42;;;;;;;;;;4998812;28;20132;-83
2022/08/26 04:34:15;;;;;;;3.50;1.40;;;;;;;;;;4998212;28;20120;-83
2022/08/26 04:36:41;;;;;;;2.15;0.98;;;;;;;;;;4997990;28;20124;-83
2022/08/26 04:39:07;;;;;;;3.78;1.35;;;;;;;;;;5014088;28;20040;-82
2022/08/26 04:41:34;;;;;;;1.70;1.10;;;;;;;;;;5017973;28;20029;-84
2022/08/26 04:44:01;;;;;;;2.22;1.15;;;;;;;;;;5001840;28;20075;-85
2022/08/26 04:46:29;;;;;;;2.47;0.95;;;;;;;;;;5002961;28;20039;-90
2022/08/26 04:48:55;;;;;;;2.45;1.05;;;;;;;;;;5018858;28;20041;-88
2022/08/26 04:51:26;;;;;;;3.17;1.05;;;;;;;;;;5002712;28;20044;-90
2022/08/26 04:53:57;;;;;;;2.78;1.23;;;;;;;;;;5003431;28;20045;-91
2022/08/26 04:56:28;;;;;;;4.38;1.58;;;;;;;;;;5018674;28;20124;-90
2022/08/26 04:58:57;;;;;;;2.38;0.90;;;;;;;;;;5002884;28;20084;-91
2022/08/26 05:01:23;;;;;;;3.33;1.10;;;;;;;;;;5002646;28;20075;-90
2022/08/26 05:03:51;;;;;;;3.08;0.80;;;;;;;;;;5002817;28;20119;-90
2022/08/26 05:06:18;;;;;;;2.42;1.10;;;;;;;;;;5002389;28;20025;-88
2022/08/26 05:08:44;;;;;;;2.78;1.05;;;;;;;;;;5001907;28;20059;-90
2022/08/26 05:11:10;;;;;;;1.70;0.75;;;;;;;;;;5001009;28;20098;-90
2022/08/26 05:13:37;;;;;;;2.55;0.95;;;;;;;;;;5002220;28;20482;-88
2022/08/26 05:16:04;;;;;;;3.17;1.00;;;;;;;;;;5014803;28;20061;-88
2022/08/26 05:18:32;;;;;;;2.58;1.13;;;;;;;;;;4982902;28;20111;-90
2022/08/26 05:21:02;;;;;;;3.53;0.95;;;;;;;;;;4983152;28;20037;-90
2022/08/26 05:23:32;;;;;;;3.88;1.23;;;;;;;;;;4998974;28;20037;-90
2022/08/26 05:26:01;;;;;;;3.53;0.90;;;;;;;;;;4982943;28;20500;-90
2022/08/26 05:28:28;;;;;;;3.55;0.98;;;;;;;;;;4982666;28;20040;-91
2022/08/26 05:30:57;;;;;;;2.15;0.80;;;;;;;;;;4982523;28;20042;-91
2022/08/26 05:33:23;;;;;;;4.60;1.02;;;;;;;;;;4998437;28;20496;-90
2022/08/26 05:35:49;;;;;;;4.05;0.70;;;;;;;;;;4982085;28;20506;-90
2022/08/26 05:38:18;;;;;;;2.90;1.27;;;;;;;;;;4982082;28;20033;-91
2022/08/26 05:40:47;;;;;;;2.85;0.85;;;;;;;;;;4981373;28;20037;-86
2022/08/26 05:43:13;;;;;;;3.35;1.10;;;;;;;;;;4981500;28;20030;-84
2022/08/26 05:45:41;;;;;;;3.05;1.02;;;;;;;;;;4997215;28;20119;-85
2022/08/26 05:48:08;;;;;;;3.70;1.15;;;;;;;;;;5001478;28;20507;-87
2022/08/26 05:50:39;;;;;;;4.00;1.23;;;;;;;;;;5002671;28;20040;-86
2022/08/26 05:53:06;;;;;;;5.93;1.58;;;;;;;;;;5001030;28;20065;-86
2022/08/26 05:55:33;;;;;;;2.95;1.05;;;;;;;;;;5000843;28;20049;-84
2022/08/26 05:57:58;;;;;;;7.68;1.70;;;;;;;;;;5002517;28;20037;-85
2022/08/26 06:00:23;;;;;;;7.55;1.25;;;;;;;;;;5016926;28;20396;-85
2022/08/26 06:02:49;;;;;;;4.75;1.60;;;;;;;;;;5032325;28;20419;-83
2022/08/26 06:05:16;;;;;;;4.15;1.27;;;;;;;;;;5034529;28;20064;-83
2022/08/26 06:10:27;;;;;;;5.53;1.20;;;;;;;;;;5035935;28;20514;-84
2022/08/26 06:12:52;;;;;;;7.55;1.00;;;;;;;;;;5033353;28;20029;-84
2022/08/26 06:15:18;;;;;;;7.18;1.52;;;;;;;;;;5033122;28;20110;-84
2022/08/26 06:17:43;;;;;;;6.28;1.38;;;;;;;;;;5016927;28;20048;-84
2022/08/26 06:20:09;;;;;;;3.50;0.98;;;;;;;;;;5000629;28;20065;-83
2022/08/26 06:25:37;;;;;;;3.60;0.80;;;;;;;;;;5035517;28;20044;-84
2022/08/26 06:28:04;;;;;;;3.28;0.73;;;;;;;;;;5024996;28;20037;-84
2022/08/26 06:30:31;;;;;;;5.95;1.20;;;;;;;;;;5004353;28;20044;-84
2022/08/26 06:32:56;;;;;;;5.53;1.35;;;;;;;;;;5003677;28;20033;-84
2022/08/26 06:35:22;;;;;;;4.43;1.50;;;;;;;;;;5003857;28;20537;-83
2022/08/26 06:37:47;;;;;;;5.30;1.05;;;;;;;;;;5019546;28;20398;-82
2022/08/26 06:40:13;;;;;;;4.85;1.10;;;;;;;;;;5019867;28;20048;-84
2022/08/26 06:42:38;;;;;;;5.15;1.58;;;;;;;;;;5015613;28;20123;-83
2022/08/26 06:45:04;;;;;;;3.95;0.90;;;;;;;;;;4985336;28;20073;-81
2022/08/26 06:47:30;;;;;;;5.80;1.10;;;;;;;;;;4998780;28;20403;-85
2022/08/26 06:49:55;;;;;;;7.72;1.20;;;;;;;;;;5003313;28;20032;-81
2022/08/26 06:52:21;;;;;;;5.45;1.60;;;;;;;;;;5018112;28;20048;-82
2022/08/26 06:54:46;;;;;;;4.57;1.88;;;;;;;;;;5018952;28;20036;-82
2022/08/26 06:57:11;;;;;;;6.85;1.77;;;;;;;;;;5035610;28;20040;-82
2022/08/26 06:59:37;;;;;;;5.75;0.90;;;;;;;;;;5035712;28;20037;-82
2022/08/26 07:02:02;;;;;;;4.10;0.70;;;;;;;;;;5018989;28;20037;-82
2022/08/26 07:04:28;;;;;;;4.07;1.27;;;;;;;;;;5018523;28;20411;-82
2022/08/26 07:06:53;;;;;;;3.60;0.95;;;;;;;;;;5035083;28;20495;-82
2022/08/26 07:09:23;;;;;;;4.65;1.08;;;;;;;;;;5018971;28;20036;-82
2022/08/26 07:11:50;;;;;;;5.82;1.08;;;;;;;;;;5019288;28;20037;-82
2022/08/26 07:14:17;;;;;;;4.82;0.80;;;;;;;;;;5035631;28;20075;-82
2022/08/26 07:16:42;;;;;;;4.95;1.40;;;;;;;;;;5035707;28;20039;-82
2022/08/26 07:19:08;;;;;;;4.20;0.80;;;;;;;;;;5019069;28;20037;-82
2022/08/26 07:21:33;;;;;;;5.95;0.88;;;;;;;;;;5002518;28;20033;-82
2022/08/26 07:23:59;;;;;;;3.75;1.30;;;;;;;;;;5035698;28;20037;-82
2022/08/26 07:26:26;;;;;;;4.88;1.20;;;;;;;;;;5002833;28;20034;-83
2022/08/26 07:28:52;;;;;;;3.15;1.27;;;;;;;;;;5035259;28;20076;-81
2022/08/26 07:31:18;;;;;;;4.13;1.40;;;;;;;;;;5035634;28;20037;-82
2022/08/26 07:33:43;;;;;;;3.85;1.20;;;;;;;;;;5002538;28;20025;-82
2022/08/26 07:36:10;;;;;;;2.55;0.95;;;;;;;;;;5034913;28;20044;-82
2022/08/26 07:38:35;;;;;;;3.13;0.80;;;;;;;;;;5017546;28;20029;-82
2022/08/26 07:41:01;;;;;;;3.58;1.05;;;;;;;;;;5035093;28;20037;-81
2022/08/26 07:43:27;;;;;;;6.10;1.13;;;;;;;;;;5035226;28;20108;-82
2022/08/26 07:45:53;;;;;;;4.28;1.20;;;;;;;;;;5050580;28;20041;-82
2022/08/26 07:48:18;;;;;;;4.20;0.80;;;;;;;;;;5031580;28;20036;-82
2022/08/26 07:50:44;;;;;;;2.72;0.80;;;;;;;;;;4998569;28;20029;-82
2022/08/26 07:53:09;;;;;;;6.32;1.08;;;;;;;;;;4982526;28;20037;-81
2022/08/26 07:55:34;;;;;;;7.75;1.52;;;;;;;;;;5015120;28;20045;-82
2022/08/26 07:58:01;;;;;;;8.85;1.67;;;;;;;;;;4998632;28;20499;-81
2022/08/26 08:00:26;;;;;;;4.05;1.10;;;;;;;;;;5015016;28;20037;-81
2022/08/26 08:02:52;;;;;;;7.60;1.40;;;;;;;;;;4982499;28;20045;-81
2022/08/26 08:05:19;;;;;;;3.80;1.48;;;;;;;;;;4981292;28;20037;-81
2022/08/26 08:07:44;;;;;;;5.35;1.48;;;;;;;;;;4982303;28;20111;-81
2022/08/26 08:10:15;;;;;;;8.57;1.50;;;;;;;;;;4997970;28;20408;-82
2022/08/26 08:12:41;;;;;;;5.18;1.50;;;;;;;;;;5014912;28;20030;-83
2022/08/26 08:15:07;;;;;;;6.00;1.30;;;;;;;;;;5006651;28;20052;-83
2022/08/26 08:17:33;;;;;;;7.72;1.90;;;;;;;;;;4998395;28;20036;-83
2022/08/26 08:20:00;;;;;;;6.72;1.85;;;;;;;;;;5014372;28;20400;-82
2022/08/26 08:22:26;;;;;;;9.75;2.65;;;;;;;;;;5014453;28;20051;-82
2022/08/26 08:24:51;;;;;;;9.63;2.08;;;;;;;;;;5014377;28;20503;-82
2022/08/26 08:27:17;;;;;;;9.25;1.90;;;;;;;;;;5014651;28;20059;-82
2022/08/26 08:29:42;;;;;;;9.05;2.67;;;;;;;;;;5030447;28;20163;-82
2022/08/26 08:32:08;;;;;;;8.90;2.15;;;;;;;;;;5030702;28;20408;-82
2022/08/26 08:34:33;;;;;;;6.07;1.63;;;;;;;;;;5030552;28;20045;-83
2022/08/26 08:36:58;;;;;;;24.58;2.55;;;;;;;;;;5014360;28;20095;-82
2022/08/26 08:39:25;;;;;;;12.10;2.80;;;;;;;;;;5014063;28;20397;-81
2022/08/26 08:42:09;;;;;;;10.75;2.20;;;;;;;;;;5017273;28;20037;-82
2022/08/26 08:44:36;;;;;;;9.48;1.80;;;;;;;;;;5034219;28;20091;-82
2022/08/26 08:47:04;;;;;;;7.90;2.30;;;;;;;;;;4997842;28;20049;-82
2022/08/26 08:49:31;;;;;;;34.85;3.95;;;;;;;;;;4981155;28;20091;-82
2022/08/26 08:52:03;;;;;;;12.82;2.25;;;;;;;;;;4981382;28;20055;-81
2022/08/26 08:54:29;;;;;;;;;;;;;;;;;;5014799;28;20403;-80
2022/08/26 08:57:02;;;;;;;11.38;2.97;;;;;;;;;;4997959;28;19915;-81
2022/08/26 08:59:32;;;;;;;7.18;1.92;;;;;;;;;;5030389;28;20033;-81
2022/08/26 09:02:18;;;;;;;5.05;1.63;;;;;;;;;;4998113;28;20435;-81
2022/08/26 09:05:05;;;;;;;6.53;1.70;;;;;;;;;;4981564;28;20041;-81
2022/08/26 09:07:58;;;;;;;6.25;2.03;;;;;;;;;;5030277;28;20523;-82
2022/08/26 09:10:38;;;;;;;7.22;1.92;;;;;;;;;;5011490;28;20045;-81
2022/08/26 09:13:08;;;;;;;6.32;2.15;;;;;;;;;;4997912;28;20037;-81
2022/08/26 09:16:09;;;;;;;4.53;1.10;;;;;;;;;;5012823;28;20029;-81
2022/08/26 09:18:54;;;;;;;7.10;1.63;;;;;;;;;;5002826;28;20129;-81
2022/08/26 09:21:22;;;;;;;2.90;1.00;;;;;;;;;;5018787;28;20029;-81
2022/08/26 09:23:49;;;;;;;2.70;1.08;;;;;;;;;;5017407;28;20041;-81
2022/08/26 09:26:44;;;;;;;4.85;1.17;;;;;;;;;;5001016;28;20491;-81
2022/08/26 09:29:21;;;;;;;5.45;1.33;;;;;;;;;;5032900;28;20043;-81
2022/08/26 09:31:47;;;;;;;4.95;1.30;;;;;;;;;;5000478;28;20041;-81
2022/08/26 09:34:25;;;;;;;3.22;1.20;;;;;;;;;;5016880;28;20040;-81
2022/08/26 09:36:52;;;;;;;5.00;1.30;;;;;;;;;;5000445;28;20170;-82
2022/08/26 09:39:25;;;;;;;4.85;1.02;;;;;;;;;;5017073;28;20040;-82
2022/08/26 09:42:00;;;;;;;7.03;1.38;;;;;;;;;;5013451;28;20053;-82
2022/08/26 09:44:26;;;;;;;5.10;1.48;;;;;;;;;;4995157;28;20061;-83
2022/08/26 09:46:54;;;;;;;12.43;7.72;;;;;;;;;;5026828;28;20072;-82
2022/08/26 09:49:27;;;;;;;29.67;18.17;;;;;;;;;;4980298;28;20030;-83
2022/08/26 09:52:23;;;;;;;14.32;8.73;;;;;;;;;;5029782;28;20091;-80
2022/08/26 09:55:05;;;;;;;13.68;6.43;;;;;;;;;;5004894;28;20045;-81
2022/08/26 09:57:33;;;;;;;13.02;6.35;;;;;;;;;;5012396;28;20038;-80
2022/08/26 10:00:00;;;;;;;28.85;7.53;;;;;;;;;;5013252;28;20061;-82
2022/08/26 10:02:35;;;;;;;40.03;8.10;;;;;;;;;;4998959;28;20084;-81
2022/08/26 10:05:05;;;;;;;25.80;6.78;;;;;;;;;;5014558;28;20040;-81
2022/08/26 10:07:42;;;;;;;31.25;6.10;;;;;;;;;;5016523;28;20037;-83
2022/08/26 10:10:29;;;;;;;28.58;6.00;;;;;;;;;;5033150;28;20041;-82
2022/08/26 10:13:04;;;;;;;24.15;5.38;;;;;;;;;;5033631;28;20044;-82
2022/08/26 10:15:35;;;;;;;19.23;4.40;;;;;;;;;;5032012;28;20059;-82
2022/08/26 10:18:10;;;;;;;22.27;4.57;;;;;;;;;;5002746;28;20164;-82
2022/08/26 10:20:37;;;;;;;13.80;4.00;;;;;;;;;;5019676;28;20507;-82
2022/08/26 10:23:21;;;;;;;10.40;2.90;;;;;;;;;;5036228;28;20483;-82
2022/08/26 10:25:52;;;;;;;18.65;3.78;;;;;;;;;;5037406;28;20047;-84
2022/08/26 10:28:33;;;;;;;15.15;3.25;;;;;;;;;;5020117;28;20036;-85
2022/08/26 10:31:17;;;;;;;15.50;3.28;;;;;;;;;;5051605;28;20549;-83
2022/08/26 10:33:42;;;;;;;16.98;3.60;;;;;;;;;;5004551;28;20037;-86
2022/08/26 10:36:47;;;;;;;10.18;3.00;;;;;;;;;;5003568;28;20406;-85
2022/08/26 10:38:55;;;;;;;8.13;3.15;;;;;;;;;;5025131;28;20495;-86
2022/08/26 10:41:21;;;;;;;6.43;2.00;;;;;;;;;;5016716;28;20060;-88
2022/08/26 10:43:59;;;;;;;8.32;2.00;;;;;;;;;;5000767;28;20416;-89
2022/08/26 10:46:27;;;;;;;6.70;1.98;;;;;;;;;;5020814;28;20086;-89
2022/08/26 10:48:53;;;;;;;8.68;2.03;;;;;;;;;;5004487;28;20498;-91
2022/08/26 10:51:30;;;;;;;6.35;2.00;;;;;;;;;;5036790;28;20086;-88
2022/08/26 10:54:00;;;;;;;5.95;1.60;;;;;;;;;;5020028;28;20500;-89
2022/08/26 10:56:42;;;;;;;7.88;1.80;;;;;;;;;;5004141;28;20512;-89
2022/08/26 10:59:16;;;;;;;6.43;1.40;;;;;;;;;;5020470;28;20048;-92
2022/08/26 11:01:48;;;;;;;5.18;1.75;;;;;;;;;;5037358;28;20052;-88
2022/08/26 11:04:22;;;;;;;7.85;2.15;;;;;;;;;;5004891;28;20074;-89
2022/08/26 11:06:47;;;;;;;4.53;1.67;;;;;;;;;;5020199;28;20044;-90
2022/08/26 11:09:42;;;;;;;4.55;1.77;;;;;;;;;;5019652;28;20033;-87
2022/08/26 11:12:07;;;;;;;7.15;1.70;;;;;;;;;;5019623;28;20099;-87
2022/08/26 11:14:33;;;;;;;4.00;1.30;;;;;;;;;;5016547;28;20476;-88
2022/08/26 11:16:59;;;;;;;5.55;1.52;;;;;;;;;;5000593;28;20109;-88
2022/08/26 11:19:37;;;;;;;4.88;1.55;;;;;;;;;;5000443;28;20029;-88
2022/08/26 11:22:10;;;;;;;3.30;1.42;;;;;;;;;;5016657;28;20430;-86
2022/08/26 11:24:51;;;;;;;6.82;1.80;;;;;;;;;;5016764;28;20045;-87
2022/08/26 11:27:23;;;;;;;4.60;1.42;;;;;;;;;;5032374;28;20500;-87
2022/08/26 11:30:08;;;;;;;5.55;1.40;;;;;;;;;;5015873;28;20029;-87
2022/08/26 11:32:56;;;;;;;2.88;1.08;;;;;;;;;;4999779;28;20400;-86
2022/08/26 11:35:24;;;;;;;4.63;1.63;;;;;;;;;;5032314;28;20033;-86
2022/08/26 11:37:53;;;;;;;4.50;1.92;;;;;;;;;;5015590;28;20128;-87
2022/08/26 11:40:21;;;;;;;5.20;3.20;;;;;;;;;;4999445;28;20037;-85
2022/08/26 11:42:50;;;;;;;10.40;5.50;;;;;;;;;;4999189;28;20079;-85
2022/08/26 11:45:40;;;;;;;7.40;4.88;;;;;;;;;;4999436;28;20469;-85
2022/08/26 11:48:25;;;;;;;10.88;7.63;;;;;;;;;;5030907;28;20412;-85
2022/08/26 11:50:54;;;;;;;7.97;5.10;;;;;;;;;;5031653;28;20040;-85
2022/08/26 11:53:21;;;;;;;8.15;5.32;;;;;;;;;;4999176;28;20034;-86
2022/08/26 11:55:46;;;;;;;6.38;3.70;;;;;;;;;;4998939;28;20030;-83
2022/08/26 11:58:12;;;;;;;6.90;4.32;;;;;;;;;;4997528;28;20041;-86
2022/08/26 12:00:59;;;;;;;5.93;3.72;;;;;;;;;;4998390;28;20025;-87
2022/08/26 12:03:36;;;;;;;7.38;3.33;;;;;;;;;;4999305;28;20511;-86
2022/08/26 12:06:02;;;;;;;6.05;3.30;;;;;;;;;;5046338;28;20037;-87
2022/08/26 12:08:29;;;;;;;5.68;3.10;;;;;;;;;;5016100;28;20041;-87
2022/08/26 12:11:07;;;;;;;6.70;2.80;;;;;;;;;;5017123;28;20026;-88
2022/08/26 12:13:33;;;;;;;5.50;2.60;;;;;;;;;;4981244;28;20038;-88
2022/08/26 12:15:59;;;;;;;4.22;2.40;;;;;;;;;;4991195;28;20038;-87
2022/08/26 12:18:29;;;;;;;4.88;1.92;;;;;;;;;;4994084;28;20084;-87
2022/08/26 12:20:55;;;;;;;4.30;2.15;;;;;;;;;;4995087;28;20038;-88
2022/08/26 12:23:33;;;;;;;4.35;2.10;;;;;;;;;;4994932;28;20037;-88
2022/08/26 12:26:07;;;;;;;3.92;2.10;;;;;;;;;;5011643;28;20030;-88
2022/08/26 12:28:33;;;;;;;4.65;2.03;;;;;;;;;;4995851;28;20026;-88
2022/08/26 12:31:00;;;;;;;4.07;1.88;;;;;;;;;;4978551;28;20038;-87
2022/08/26 12:33:26;;;;;;;3.45;2.00;;;;;;;;;;4995729;28;20040;-87
2022/08/26 12:35:52;;;;;;;5.00;1.90;;;;;;;;;;4995329;28;20112;-88
2022/08/26 12:38:17;;;;;;;3.92;1.77;;;;;;;;;;4963298;28;20488;-87
2022/08/26 12:40:43;;;;;;;3.80;2.15;;;;;;;;;;4978933;28;20534;-87
2022/08/26 12:43:10;;;;;;;4.68;1.75;;;;;;;;;;5011691;28;20033;-88
2022/08/26 12:45:37;;;;;;;3.40;1.90;;;;;;;;;;4978893;28;20087;-86
2022/08/26 12:48:25;;;;;;;2.72;1.50;;;;;;;;;;4975467;28;20084;-86
2022/08/26 12:50:51;;;;;;;3.58;1.40;;;;;;;;;;5021552;28;20121;-87
2022/08/26 12:53:32;;;;;;;3.88;1.92;;;;;;;;;;5007950;28;20089;-86
2022/08/26 12:56:00;;;;;;;4.22;2.13;;;;;;;;;;4989620;28;20034;-86
2022/08/26 12:58:28;;;;;;;4.10;1.80;;;;;;;;;;4990992;28;20053;-86
2022/08/26 13:01:03;;;;;;;4.40;1.90;;;;;;;;;;5023963;28;20034;-85
2022/08/26 13:03:42;;;;;;;5.80;1.85;;;;;;;;;;5007052;28;20126;-86
2022/08/26 13:06:20;;;;;;;3.08;1.70;;;;;;;;;;5023338;28;20060;-86
2022/08/26 13:08:51;;;;;;;5.43;2.35;;;;;;;;;;5007500;28;20038;-87
2022/08/26 13:11:28;;;;;;;3.83;2.05;;;;;;;;;;4991261;28;20513;-84
2022/08/26 13:13:56;;;;;;;2.85;1.70;;;;;;;;;;4992746;28;20070;-86
2022/08/26 13:16:22;;;;;;;4.47;2.30;;;;;;;;;;5009433;28;20416;-86
2022/08/26 13:18:55;;;;;;;4.07;2.70;;;;;;;;;;4993101;28;20032;-87
2022/08/26 13:21:24;;;;;;;3.75;2.08;;;;;;;;;;4962248;28;20033;-86
2022/08/26 13:23:49;;;;;;;3.72;2.00;;;;;;;;;;4995424;28;20034;-86
2022/08/26 13:26:15;;;;;;;4.50;2.28;;;;;;;;;;4962156;28;20124;-86
2022/08/26 13:28:41;;;;;;;5.03;2.50;;;;;;;;;;4978164;28;20061;-85
2022/08/26 13:31:07;;;;;;;5.22;2.58;;;;;;;;;;4993724;28;20041;-85
2022/08/26 13:33:32;;;;;;;4.43;2.45;;;;;;;;;;4977926;28;20046;-86
2022/08/26 13:35:58;;;;;;;6.32;2.50;;;;;;;;;;4993995;28;20448;-86
2022/08/26 13:38:23;;;;;;;4.57;2.40;;;;;;;;;;4981308;28;20041;-85
2022/08/26 13:40:49;;;;;;;4.10;2.33;;;;;;;;;;4978649;28;20539;-86
2022/08/26 13:43:14;;;;;;;4.53;2.47;;;;;;;;;;5011024;28;20424;-88
2022/08/26 13:45:40;;;;;;;4.28;2.70;;;;;;;;;;5011140;28;20045;-85
2022/08/26 13:48:05;;;;;;;4.78;2.45;;;;;;;;;;4996757;28;20041;-86
2022/08/26 13:50:32;;;;;;;4.72;1.98;;;;;;;;;;4981283;28;20065;-86
2022/08/26 13:52:58;;;;;;;3.63;2.65;;;;;;;;;;4997603;28;20041;-85
2022/08/26 13:55:23;;;;;;;4.75;2.17;;;;;;;;;;4996707;28;20030;-85
2022/08/26 13:57:48;;;;;;;4.75;2.33;;;;;;;;;;4981645;28;20041;-85
2022/08/26 14:00:14;;;;;;;4.40;2.38;;;;;;;;;;5013669;28;20029;-85
2022/08/26 14:02:40;;;;;;;5.70;2.90;;;;;;;;;;4997896;28;20042;-85
2022/08/26 14:05:05;;;;;;;4.72;3.10;;;;;;;;;;4981071;28;20040;-84
2022/08/26 14:07:31;;;;;;;5.40;2.33;;;;;;;;;;4980976;28;20038;-85
2022/08/26 14:09:57;;;;;;;4.47;2.80;;;;;;;;;;4981248;28;20052;-84
2022/08/26 14:12:22;;;;;;;6.75;3.45;;;;;;;;;;4996918;28;20120;-85
2022/08/26 14:14:48;;;;;;;8.75;5.53;;;;;;;;;;4981504;28;20041;-85
2022/08/26 14:17:19;;;;;;;6.00;3.78;;;;;;;;;;4995214;28;20053;-84
2022/08/26 14:19:45;;;;;;;8.70;3.75;;;;;;;;;;5012146;28;20446;-85
2022/08/26 14:22:12;;;;;;;5.15;3.33;;;;;;;;;;4996046;28;20085;-85
2022/08/26 14:24:37;;;;;;;6.45;3.13;;;;;;;;;;5013595;28;20041;-85
2022/08/26 14:27:03;;;;;;;6.25;3.53;;;;;;;;;;5030448;28;20034;-85
2022/08/26 14:29:28;;;;;;;4.97;3.53;;;;;;;;;;5013660;28;20081;-85
2022/08/26 14:31:54;;;;;;;6.90;2.90;;;;;;;;;;5013512;28;20515;-85
2022/08/26 14:34:19;;;;;;;5.85;2.65;;;;;;;;;;5012931;28;20057;-84
2022/08/26 14:36:44;;;;;;;6.72;2.80;;;;;;;;;;5012661;28;20045;-84
2022/08/26 14:39:11;;;;;;;6.65;2.72;;;;;;;;;;5012772;28;20254;-84
2022/08/26 14:41:48;;;;;;;8.60;3.33;;;;;;;;;;5025842;28;20062;-84
2022/08/26 14:44:13;;;;;;;5.43;2.78;;;;;;;;;;4992641;28;20036;-85
2022/08/26 14:46:45;;;;;;;4.18;1.85;;;;;;;;;;4992982;28;20027;-84
2022/08/26 14:49:11;;;;;;;9.90;3.20;;;;;;;;;;4961233;28;20615;-84
2022/08/26 14:51:37;;;;;;;5.15;2.60;;;;;;;;;;4961027;28;20050;-84
2022/08/26 14:54:11;;;;;;;5.00;2.30;;;;;;;;;;4961021;28;20516;-84
2022/08/26 14:56:57;;;;;;;4.28;2.38;;;;;;;;;;5026250;28;20134;-85
2022/08/26 14:59:27;;;;;;;4.75;2.03;;;;;;;;;;4993378;28;20043;-84